Matthews, Indiana
Current Conditions -  °F | °C
As of 5:15 PM on Sunday 25 Jan 2015 (Local Time) from KMZZ Reporting Station
Overcast Overcast  
Wind Chill: 10°   Ceiling: 1100
Heat Index: 25°   Visibility: 10mi
Dew Point: 22°   Wind: 22mph
Humidity: 89%   Direction: 60°ENE
Pressure: 29.76"   Gusts: 28mph
Location:  40.39°N, 85.5°W
Report Text: KMZZ 252215Z AUTO 06019G24KT 10SM OVC011 M04/M05 A2976 RMK AO2 T10381054
Loading
Personal Weather Stations






























Interactive Weather Map New forecast layout! Learn more

10-Day Weather Forecast

Advertisements
Track Severe Weather on mobile